Capitol Logistics 466


KPVD
Theodore Francis Green State Airport
Providence, Rhode Island, US
KRFD
Chicago/Rockford International Airport
Rockford, Illinois, US

Route Details

Aircraft Information
Primary: Boeing 737-800BCF
Backup: Not Available
Route Data
Distance: 790nm
Sched. Duration: 1h 44m
Avg. Duration: 2h 27m (+83m)
Times Flown: 11
Recm'd Route: PUT CTR CAM Q822 FNT J547 OBK V24 KRENA V100 RFD
Planned Altitude: 38,000ft
Origin Wx: KPVD 290516Z AUTO 00000KT 10SM SCT004 09/08 A2996 RMK AO2 T00890083
Dest. Wx: KRFD 290454Z 18003KT 10SM OVC250 04/M01 A2993 RMK AO2 SLP138 T00391011
Notes:

Financial History
Total Freight: 595,773lbs
Average Load: 54,161lbs/flt
Fuel Used: 202,917lbs
Avg. Fuel Used: 18,447lbs/flt
Fuel Expense: $192,771
Avg. Fuel Expense: $17,525
Avg. Fuel Cost: $0.95/lbs
Total Gross Income: $787,557
Pilot Pay: $1,799
Total Expenses: $85,628
Total Revenue: $503,124
Average Revenue: $71,596.05